Spearville, Kansas
Current Conditions -  °F | °C
As of 1:52 AM on Friday 24 Oct 2014 (Local Time) from KDDC Reporting Station
Clear Clear  
Wind Chill: 61°   Ceiling: Unl
Heat Index: 61°   Visibility: 8mi
Dew Point: 57°   Wind: 12mph
Humidity: 87%   Direction: 210°SSW
Pressure: 30.07"   Gusts: NA
Location:  37.85°N, 99.76°W
Report Text: KDDC 240652Z AUTO 21010KT 8SM CLR 16/14 A3007 RMK AO2 SLP163 T01610139
Loading
Personal Weather Stations






























Interactive Weather Map
Tropical Storm Tracking
New forecast layout! Learn more

10-Day Weather Forecast

Advertisements
Track Severe Weather on mobile